Airfield :
LOGIN :

Register | Disclaimer

   EN    FR    IT 

 










Legend :    VFR   Marginal VFR   IFR   Intensive IFR   Very Intensive IFR
Visi :
Ceiling :
>= 8 km
>= 3000ft
5 to 8 km
1000 to 3000 ft
1500m to 5 km
500 to 1000 ft
800 to 1500m
200 to 500 ft
< 800m
< 200 ft
Symbols :   Thunderstorms  Fog  Heavy snow  Heavy precipitations  Wind > 20 kt
SIGMETs :     Misc.  Thunderstorms  Icing  Turbulence  Mountain Waves  Volcanic Ashes






- Airport Elevation : 13 ft
- IATA code : OST


EBOS - Oostend bruges Int.

CURRENT METAR :
  • 212050Z 11006KT 7000 SCT044 02/01 Q1003 NOSIG

EXPIRED METARs :
  • 212020Z 11006KT 7000 NSC 01/00 Q1003 NOSIG
  • 211950Z 10006KT 6000 NSC 01/M00 Q1003 NOSIG
  • 211920Z 11009KT 6000 NSC 02/00 Q1003 NOSIG
  • 211850Z 11009KT 6000 NSC 02/M00 Q1003 NOSIG
  • 211820Z 11009KT 6000 NSC 02/00 Q1003 NOSIG

TAF TAF EBOS
Valid from the 21 at 18:00 until the 23 at 00:00 UTC


211710Z 2118/2224 13009KT 8000 NSC
BECMG 2123/2201 SCT008 BKN011
TEMPO 2200/2204 4000 RA SHRA BKN008
BECMG 2206/2208 BKN018



MET'MAP, your aeronautical weather chart ! - Copyright ORBIFLY December 2007 - Disclaimer

ORBIFLY MET'MAP TEAM :

Programming & Development : Alexandra Zaïnal
Concept & Development : Baudouin d'Aumeries
Co-Development & Prog : Marc-Olivier Méhu
Technical & hardware support : Manuel Goepfert

Contact : metmap@orbifly.com




SOURCES & CREDITS :

   NOAA